Aérodrome :
LOGIN :

S'inscrire | Disclaimer

   EN    FR    IT 

 










Légende :    VFR   VFR Marginal   IFR   IFR Intensif   IFR Très Intensif
Visi : 
Plafond : 
>= 8 km
>= 3000ft
5 à 8 km
1000 à 3000 ft
1500m à 5 km
500 à 1000 ft
800 à 1500m
200 à 500 ft
< 800m
< 200 ft
Symboles :   Orages  Brouillard  Fortes neiges  Fortes précipitations  Vent > 20 kt
SIGMETs :   Divers  Orages  Givrage  Turbulence  Onde Orograph.  Cendres Volcan.






- Altitude de l'aérodrome : 102 ft
- Code IATA : CNG


LFBG - Cognac

DERNIER METAR :
  • 220130Z AUTO 08007KT CAVOK 11/07 Q1015 TEMPO 4000 BR

METARs EXPIRÉS :
  • 220100Z AUTO 08007KT CAVOK 11/07 Q1015 NOSIG
  • 220030Z AUTO 08006KT CAVOK 11/07 Q1015 NOSIG
  • 220000Z AUTO 10006KT CAVOK 11/07 Q1015 NOSIG
  • 212330Z AUTO 08006KT CAVOK 12/07 Q1015 NOSIG
  • 212300Z AUTO 10006KT CAVOK 12/07 Q1015 NOSIG

TAF TAF LFBG
Valide du 21 à 21h jusqu'au 22 à 21h UTC


212000Z 2121/2221 08005KT CAVOK
PROB30 2203/2205 4000 BR



MET'MAP, la Météo Aéronautique d'un coup d'oeil ! - Copyright ORBIFLY Décembre 2007 - Disclaimer

ORBIFLY MET'MAP TEAM :

Programmation & Développement : Alexandra Zaïnal
Sur une idée originale de : Baudouin d'Aumeries
Assistance à la programmation : Marc-Olivier Méhu
Soutien technique & logistique : Manuel Goepfert

Contact : metmap@orbifly.com




SOURCES & CREDITS :

   NOAA